sensor_id;sensor_type;location;lat;lon;timestamp;pressure;altitude;pressure_sealevel;temperature;humidity
13695;BME280;6919;52.344;14.518;2022-10-22T00:01:18;100226.69;;;15.20;100.00
13695;BME280;6919;52.344;14.518;2022-10-22T00:03:46;100237.81;;;15.10;100.00
13695;BME280;6919;52.344;14.518;2022-10-22T00:06:15;100243.72;;;14.99;100.00
13695;BME280;6919;52.344;14.518;2022-10-22T00:08:45;100253.66;;;14.99;100.00
13695;BME280;6919;52.344;14.518;2022-10-22T00:11:16;100248.47;;;14.97;100.00
13695;BME280;6919;52.344;14.518;2022-10-22T00:13:46;100244.88;;;15.11;100.00
13695;BME280;6919;52.344;14.518;2022-10-22T00:16:14;100240.03;;;15.07;100.00
13695;BME280;6919;52.344;14.518;2022-10-22T00:18:43;100234.06;;;15.11;100.00
13695;BME280;6919;52.344;14.518;2022-10-22T00:21:11;100247.22;;;15.00;100.00
13695;BME280;6919;52.344;14.518;2022-10-22T00:23:40;100237.75;;;15.04;100.00
13695;BME280;6919;52.344;14.518;2022-10-22T00:26:11;100238.03;;;14.94;100.00
13695;BME280;6919;52.344;14.518;2022-10-22T00:28:39;100251.06;;;15.05;100.00
13695;BME280;6919;52.344;14.518;2022-10-22T00:31:08;100244.25;;;15.09;100.00
13695;BME280;6919;52.344;14.518;2022-10-22T00:33:36;100244.50;;;15.14;100.00
13695;BME280;6919;52.344;14.518;2022-10-22T00:36:05;100249.91;;;15.14;100.00
13695;BME280;6919;52.344;14.518;2022-10-22T00:38:34;100241.03;;;15.20;100.00
13695;BME280;6919;52.344;14.518;2022-10-22T00:41:02;100237.16;;;15.08;100.00
13695;BME280;6919;52.344;14.518;2022-10-22T00:43:32;100231.91;;;15.21;100.00
13695;BME280;6919;52.344;14.518;2022-10-22T00:46:01;100243.59;;;15.28;100.00
13695;BME280;6919;52.344;14.518;2022-10-22T00:48:31;100242.56;;;15.29;100.00
13695;BME280;6919;52.344;14.518;2022-10-22T00:51:04;100249.06;;;15.35;100.00
13695;BME280;6919;52.344;14.518;2022-10-22T00:53:38;100246.53;;;15.33;100.00
13695;BME280;6919;52.344;14.518;2022-10-22T00:56:09;100253.56;;;15.28;100.00
13695;BME280;6919;52.344;14.518;2022-10-22T00:58:45;100249.91;;;15.35;100.00
13695;BME280;6919;52.344;14.518;2022-10-22T01:01:19;100226.56;;;15.49;100.00
13695;BME280;6919;52.344;14.518;2022-10-22T01:03:49;100208.09;;;15.31;100.00
13695;BME280;6919;52.344;14.518;2022-10-22T01:06:23;100214.47;;;15.45;100.00
13695;BME280;6919;52.344;14.518;2022-10-22T01:09:08;100198.34;;;15.30;100.00
13695;BME280;6919;52.344;14.518;2022-10-22T01:11:52;100196.06;;;15.34;100.00
13695;BME280;6919;52.344;14.518;2022-10-22T01:14:34;100214.25;;;15.04;100.00
13695;BME280;6919;52.344;14.518;2022-10-22T01:17:13;100218.91;;;15.31;100.00
13695;BME280;6919;52.344;14.518;2022-10-22T01:20:04;100229.97;;;15.15;100.00
13695;BME280;6919;52.344;14.518;2022-10-22T01:22:42;100230.16;;;15.35;100.00
13695;BME280;6919;52.344;14.518;2022-10-22T01:25:23;100235.13;;;15.31;100.00
13695;BME280;6919;52.344;14.518;2022-10-22T01:28:10;100244.16;;;15.24;100.00
13695;BME280;6919;52.344;14.518;2022-10-22T01:30:48;100242.06;;;14.98;100.00
13695;BME280;6919;52.344;14.518;2022-10-22T01:33:22;100231.03;;;15.00;100.00
13695;BME280;6919;52.344;14.518;2022-10-22T01:35:52;100232.34;;;15.04;100.00
13695;BME280;6919;52.344;14.518;2022-10-22T01:38:23;100234.06;;;15.11;100.00
13695;BME280;6919;52.344;14.518;2022-10-22T01:40:53;100230.81;;;15.16;100.00
13695;BME280;6919;52.344;14.518;2022-10-22T01:43:22;100231.00;;;15.14;100.00
13695;BME280;6919;52.344;14.518;2022-10-22T01:45:57;100228.47;;;15.13;100.00
13695;BME280;6919;52.344;14.518;2022-10-22T01:48:37;100225.16;;;15.11;100.00
13695;BME280;6919;52.344;14.518;2022-10-22T01:51:25;100227.00;;;14.89;100.00
13695;BME280;6919;52.344;14.518;2022-10-22T01:54:06;100229.44;;;14.84;100.00
13695;BME280;6919;52.344;14.518;2022-10-22T01:56:55;100235.63;;;14.99;100.00
13695;BME280;6919;52.344;14.518;2022-10-22T01:59:41;100226.03;;;14.97;100.00
13695;BME280;6919;52.344;14.518;2022-10-22T02:02:23;100236.50;;;14.85;100.00
13695;BME280;6919;52.344;14.518;2022-10-22T02:04:59;100235.59;;;14.78;100.00
13695;BME280;6919;52.344;14.518;2022-10-22T02:07:35;100235.25;;;15.02;100.00
13695;BME280;6919;52.344;14.518;2022-10-22T02:10:08;100232.94;;;15.20;100.00
13695;BME280;6919;52.344;14.518;2022-10-22T02:12:39;100229.13;;;15.15;100.00
13695;BME280;6919;52.344;14.518;2022-10-22T02:15:10;100238.88;;;14.95;100.00
13695;BME280;6919;52.344;14.518;2022-10-22T02:17:44;100234.06;;;15.11;100.00
13695;BME280;6919;52.344;14.518;2022-10-22T02:20:18;100239.72;;;14.95;100.00
13695;BME280;6919;52.344;14.518;2022-10-22T02:22:49;100244.81;;;15.05;100.00
13695;BME280;6919;52.344;14.518;2022-10-22T02:25:20;100246.63;;;15.19;100.00
13695;BME280;6919;52.344;14.518;2022-10-22T02:27:54;100251.44;;;15.02;100.00
13695;BME280;6919;52.344;14.518;2022-10-22T02:30:25;100249.94;;;14.79;100.00
13695;BME280;6919;52.344;14.518;2022-10-22T02:33:01;100252.41;;;14.80;100.00
13695;BME280;6919;52.344;14.518;2022-10-22T02:35:32;100254.59;;;14.55;100.00
13695;BME280;6919;52.344;14.518;2022-10-22T02:38:02;100261.47;;;14.58;100.00
13695;BME280;6919;52.344;14.518;2022-10-22T02:40:31;100269.50;;;14.37;100.00
13695;BME280;6919;52.344;14.518;2022-10-22T02:43:02;100266.25;;;14.56;100.00
13695;BME280;6919;52.344;14.518;2022-10-22T02:45:31;100258.97;;;14.71;100.00
13695;BME280;6919;52.344;14.518;2022-10-22T02:48:02;100249.53;;;14.82;100.00
13695;BME280;6919;52.344;14.518;2022-10-22T02:50:31;100244.00;;;14.54;100.00
13695;BME280;6919;52.344;14.518;2022-10-22T02:52:59;100234.69;;;14.56;100.00
13695;BME280;6919;52.344;14.518;2022-10-22T02:55:27;100240.78;;;14.80;100.00
13695;BME280;6919;52.344;14.518;2022-10-22T02:57:56;100240.22;;;14.84;100.00
13695;BME280;6919;52.344;14.518;2022-10-22T03:00:24;100237.63;;;15.12;100.00
13695;BME280;6919;52.344;14.518;2022-10-22T03:02:52;100237.69;;;15.18;100.00
13695;BME280;6919;52.344;14.518;2022-10-22T03:05:22;100244.16;;;15.24;100.00
13695;BME280;6919;52.344;14.518;2022-10-22T03:07:50;100240.94;;;15.14;100.00
13695;BME280;6919;52.344;14.518;2022-10-22T03:10:18;100246.34;;;15.35;100.00
13695;BME280;6919;52.344;14.518;2022-10-22T03:12:46;100245.75;;;15.54;100.00
13695;BME280;6919;52.344;14.518;2022-10-22T03:15:15;100253.97;;;15.46;100.00
13695;BME280;6919;52.344;14.518;2022-10-22T03:17:43;100263.59;;;15.48;100.00
13695;BME280;6919;52.344;14.518;2022-10-22T03:20:12;100254.47;;;15.35;100.00
13695;BME280;6919;52.344;14.518;2022-10-22T03:22:43;100244.88;;;15.11;100.00
13695;BME280;6919;52.344;14.518;2022-10-22T03:25:18;100248.91;;;15.36;100.00
13695;BME280;6919;52.344;14.518;2022-10-22T03:27:49;100239.19;;;15.42;100.00
13695;BME280;6919;52.344;14.518;2022-10-22T03:30:19;100238.44;;;15.33;100.00
13695;BME280;6919;52.344;14.518;2022-10-22T03:32:47;100242.78;;;15.49;100.00
13695;BME280;6919;52.344;14.518;2022-10-22T03:35:16;100229.88;;;15.44;100.00
13695;BME280;6919;52.344;14.518;2022-10-22T03:37:45;100236.94;;;15.45;100.00
13695;BME280;6919;52.344;14.518;2022-10-22T03:40:14;100239.56;;;15.18;100.00
13695;BME280;6919;52.344;14.518;2022-10-22T03:42:42;100243.59;;;15.07;100.00
13695;BME280;6919;52.344;14.518;2022-10-22T03:45:11;100245.47;;;15.49;100.00
13695;BME280;6919;52.344;14.518;2022-10-22T03:47:39;100244.91;;;15.53;100.00
13695;BME280;6919;52.344;14.518;2022-10-22T03:50:09;100243.75;;;15.62;100.00
13695;BME280;6919;52.344;14.518;2022-10-22T03:52:38;100257.38;;;15.54;100.00
13695;BME280;6919;52.344;14.518;2022-10-22T03:55:09;100251.41;;;15.59;100.00
13695;BME280;6919;52.344;14.518;2022-10-22T03:57:37;100254.25;;;15.78;100.00
13695;BME280;6919;52.344;14.518;2022-10-22T04:00:09;100258.28;;;15.61;100.00
13695;BME280;6919;52.344;14.518;2022-10-22T04:02:37;100265.47;;;15.75;100.00
13695;BME280;6919;52.344;14.518;2022-10-22T04:05:06;100258.78;;;15.71;100.00
13695;BME280;6919;52.344;14.518;2022-10-22T04:07:34;100260.25;;;15.74;100.00
13695;BME280;6919;52.344;14.518;2022-10-22T04:10:04;100258.31;;;15.89;100.00
13695;BME280;6919;52.344;14.518;2022-10-22T04:12:33;100259.16;;;15.68;100.00
13695;BME280;6919;52.344;14.518;2022-10-22T04:15:02;100263.06;;;15.59;100.00
13695;BME280;6919;52.344;14.518;2022-10-22T04:17:33;100259.72;;;15.36;100.00
13695;BME280;6919;52.344;14.518;2022-10-22T04:20:03;100269.38;;;15.45;100.00
13695;BME280;6919;52.344;14.518;2022-10-22T04:22:32;100269.50;;;15.58;100.00
13695;BME280;6919;52.344;14.518;2022-10-22T04:25:02;100278.22;;;15.60;100.00
13695;BME280;6919;52.344;14.518;2022-10-22T04:27:30;100278.22;;;15.81;100.00
13695;BME280;6919;52.344;14.518;2022-10-22T04:30:00;100282.97;;;15.79;100.00
13695;BME280;6919;52.344;14.518;2022-10-22T04:32:28;100278.75;;;15.70;100.00
13695;BME280;6919;52.344;14.518;2022-10-22T04:34:56;100272.09;;;15.73;100.00
13695;BME280;6919;52.344;14.518;2022-10-22T04:37:24;100273.78;;;15.53;100.00
13695;BME280;6919;52.344;14.518;2022-10-22T04:39:53;100273.31;;;15.43;100.00
13695;BME280;6919;52.344;14.518;2022-10-22T04:42:24;100273.03;;;15.38;100.00
13695;BME280;6919;52.344;14.518;2022-10-22T04:44:52;100269.38;;;15.45;100.00
13695;BME280;6919;52.344;14.518;2022-10-22T04:47:21;100274.59;;;15.47;100.00
13695;BME280;6919;52.344;14.518;2022-10-22T04:49:49;100265.28;;;15.56;100.00
13695;BME280;6919;52.344;14.518;2022-10-22T04:52:18;100266.56;;;15.60;100.00
13695;BME280;6919;52.344;14.518;2022-10-22T04:54:46;100256.47;;;15.47;100.00
13695;BME280;6919;52.344;14.518;2022-10-22T04:57:14;100265.44;;;15.48;100.00
13695;BME280;6919;52.344;14.518;2022-10-22T04:59:42;100253.34;;;15.44;100.00
13695;BME280;6919;52.344;14.518;2022-10-22T05:02:10;100256.25;;;15.42;100.00
13695;BME280;6919;52.344;14.518;2022-10-22T05:04:42;100259.47;;;15.52;100.00
13695;BME280;6919;52.344;14.518;2022-10-22T05:07:11;100244.66;;;15.48;100.00
13695;BME280;6919;52.344;14.518;2022-10-22T05:09:39;100252.38;;;15.51;100.00
13695;BME280;6919;52.344;14.518;2022-10-22T05:12:07;100257.13;;;15.49;100.00
13695;BME280;6919;52.344;14.518;2022-10-22T05:14:35;100259.38;;;15.46;100.00
13695;BME280;6919;52.344;14.518;2022-10-22T05:17:08;100259.84;;;15.49;100.00
13695;BME280;6919;52.344;14.518;2022-10-22T05:19:36;100259.75;;;15.22;100.00
13695;BME280;6919;52.344;14.518;2022-10-22T05:22:06;100273.38;;;15.35;100.00
13695;BME280;6919;52.344;14.518;2022-10-22T05:24:34;100272.03;;;15.24;100.00
13695;BME280;6919;52.344;14.518;2022-10-22T05:27:03;100279.09;;;15.40;100.00
13695;BME280;6919;52.344;14.518;2022-10-22T05:29:31;100276.91;;;15.50;100.00
13695;BME280;6919;52.344;14.518;2022-10-22T05:31:59;100282.56;;;15.19;100.00
13695;BME280;6919;52.344;14.518;2022-10-22T05:34:27;100274.56;;;15.11;100.00
13695;BME280;6919;52.344;14.518;2022-10-22T05:36:55;100281.34;;;15.22;100.00
13695;BME280;6919;52.344;14.518;2022-10-22T05:39:25;100287.97;;;14.98;100.00
13695;BME280;6919;52.344;14.518;2022-10-22T05:41:53;100289.44;;;15.01;100.00
13695;BME280;6919;52.344;14.518;2022-10-22T05:44:21;100302.38;;;14.91;100.00
13695;BME280;6919;52.344;14.518;2022-10-22T05:46:49;100306.59;;;14.79;100.00
13695;BME280;6919;52.344;14.518;2022-10-22T05:49:18;100310.50;;;14.76;100.00
13695;BME280;6919;52.344;14.518;2022-10-22T05:51:46;100311.94;;;14.57;100.00
13695;BME280;6919;52.344;14.518;2022-10-22T05:54:17;100310.72;;;14.60;100.00
13695;BME280;6919;52.344;14.518;2022-10-22T05:56:48;100303.59;;;14.88;100.00
13695;BME280;6919;52.344;14.518;2022-10-22T05:59:16;100301.53;;;15.05;100.00
13695;BME280;6919;52.344;14.518;2022-10-22T06:01:44;100292.72;;;15.17;100.00
13695;BME280;6919;52.344;14.518;2022-10-22T06:04:12;100291.50;;;15.20;100.00
13695;BME280;6919;52.344;14.518;2022-10-22T06:06:44;100296.66;;;15.15;100.00
13695;BME280;6919;52.344;14.518;2022-10-22T06:09:17;100309.66;;;15.26;100.00
13695;BME280;6919;52.344;14.518;2022-10-22T06:11:48;100308.69;;;15.33;100.00
13695;BME280;6919;52.344;14.518;2022-10-22T06:14:18;100300.31;;;15.43;100.00
13695;BME280;6919;52.344;14.518;2022-10-22T06:16:47;100298.25;;;15.45;100.00
13695;BME280;6919;52.344;14.518;2022-10-22T06:19:18;100307.41;;;15.29;100.00
13695;BME280;6919;52.344;14.518;2022-10-22T06:21:47;100313.41;;;15.46;100.00
13695;BME280;6919;52.344;14.518;2022-10-22T06:24:16;100315.94;;;15.47;100.00
13695;BME280;6919;52.344;14.518;2022-10-22T06:26:44;100312.47;;;15.53;100.00
13695;BME280;6919;52.344;14.518;2022-10-22T06:29:13;100315.34;;;15.52;100.00
13695;BME280;6919;52.344;14.518;2022-10-22T06:31:42;100314.75;;;15.35;100.00
13695;BME280;6919;52.344;14.518;2022-10-22T06:34:12;100324.03;;;15.47;100.00
13695;BME280;6919;52.344;14.518;2022-10-22T06:36:42;100324.25;;;15.31;100.00
13695;BME280;6919;52.344;14.518;2022-10-22T06:39:13;100340.44;;;15.46;100.00
13695;BME280;6919;52.344;14.518;2022-10-22T06:41:42;100340.84;;;15.28;100.00
13695;BME280;6919;52.344;14.518;2022-10-22T06:44:15;100345.16;;;15.37;100.00
13695;BME280;6919;52.344;14.518;2022-10-22T06:46:43;100340.59;;;15.23;100.00
13695;BME280;6919;52.344;14.518;2022-10-22T06:49:14;100343.81;;;15.33;100.00
13695;BME280;6919;52.344;14.518;2022-10-22T06:51:43;100347.91;;;15.29;100.00
13695;BME280;6919;52.344;14.518;2022-10-22T06:54:11;100344.47;;;15.35;100.00
13695;BME280;6919;52.344;14.518;2022-10-22T06:56:39;100342.13;;;15.47;100.00
13695;BME280;6919;52.344;14.518;2022-10-22T06:59:07;100348.44;;;15.54;100.00
13695;BME280;6919;52.344;14.518;2022-10-22T07:01:38;100356.75;;;15.52;100.00
13695;BME280;6919;52.344;14.518;2022-10-22T07:04:06;100350.88;;;15.49;100.00
13695;BME280;6919;52.344;14.518;2022-10-22T07:06:34;100344.91;;;15.74;100.00
13695;BME280;6919;52.344;14.518;2022-10-22T07:09:03;100341.09;;;15.69;100.00
13695;BME280;6919;52.344;14.518;2022-10-22T07:11:39;100337.97;;;15.65;100.00
13695;BME280;6919;52.344;14.518;2022-10-22T07:14:08;100338.72;;;15.80;100.00
13695;BME280;6919;52.344;14.518;2022-10-22T07:16:38;100325.03;;;15.82;100.00
13695;BME280;6919;52.344;14.518;2022-10-22T07:19:08;100331.31;;;15.89;100.00
13695;BME280;6919;52.344;14.518;2022-10-22T07:21:36;100331.63;;;15.79;100.00
13695;BME280;6919;52.344;14.518;2022-10-22T07:24:05;100336.13;;;15.72;100.00
13695;BME280;6919;52.344;14.518;2022-10-22T07:26:33;100344.94;;;15.81;100.00
13695;BME280;6919;52.344;14.518;2022-10-22T07:29:05;100346.03;;;15.86;100.00
13695;BME280;6919;52.344;14.518;2022-10-22T07:31:33;100354.63;;;15.90;100.00
13695;BME280;6919;52.344;14.518;2022-10-22T07:34:03;100358.03;;;15.98;100.00
13695;BME280;6919;52.344;14.518;2022-10-22T07:36:32;100360.78;;;16.05;100.00
13695;BME280;6919;52.344;14.518;2022-10-22T07:39:00;100367.81;;;15.78;100.00
13695;BME280;6919;52.344;14.518;2022-10-22T07:41:29;100369.03;;;15.97;100.00
13695;BME280;6919;52.344;14.518;2022-10-22T07:43:58;100379.91;;;15.82;100.00
13695;BME280;6919;52.344;14.518;2022-10-22T07:46:26;100386.94;;;15.77;100.00
13695;BME280;6919;52.344;14.518;2022-10-22T07:48:54;100391.75;;;15.60;100.00
13695;BME280;6919;52.344;14.518;2022-10-22T07:51:24;100397.97;;;15.40;100.00
13695;BME280;6919;52.344;14.518;2022-10-22T07:53:52;100400.34;;;15.49;100.00
13695;BME280;6919;52.344;14.518;2022-10-22T07:56:20;100396.63;;;15.50;100.00
13695;BME280;6919;52.344;14.518;2022-10-22T07:58:48;100406.44;;;15.37;100.00
13695;BME280;6919;52.344;14.518;2022-10-22T08:01:17;100401.09;;;15.43;100.00
13695;BME280;6919;52.344;14.518;2022-10-22T08:03:45;100410.66;;;15.60;100.00
13695;BME280;6919;52.344;14.518;2022-10-22T08:06:13;100410.03;;;15.58;100.00
13695;BME280;6919;52.344;14.518;2022-10-22T08:08:43;100410.41;;;15.55;100.00
13695;BME280;6919;52.344;14.518;2022-10-22T08:11:12;100401.47;;;15.76;100.00
13695;BME280;6919;52.344;14.518;2022-10-22T08:13:40;100402.94;;;15.57;100.00
13695;BME280;6919;52.344;14.518;2022-10-22T08:16:11;100409.56;;;15.55;100.00
13695;BME280;6919;52.344;14.518;2022-10-22T08:18:39;100410.03;;;15.58;100.00
13695;BME280;6919;52.344;14.518;2022-10-22T08:21:07;100418.34;;;15.42;100.00
13695;BME280;6919;52.344;14.518;2022-10-22T08:23:36;100409.00;;;15.59;100.00
13695;BME280;6919;52.344;14.518;2022-10-22T08:26:05;100406.28;;;15.59;100.00
13695;BME280;6919;52.344;14.518;2022-10-22T08:28:33;100398.78;;;15.76;100.00
13695;BME280;6919;52.344;14.518;2022-10-22T08:31:03;100410.88;;;15.80;100.00
13695;BME280;6919;52.344;14.518;2022-10-22T08:33:31;100414.97;;;15.90;100.00
13695;BME280;6919;52.344;14.518;2022-10-22T08:36:00;100407.84;;;15.89;100.00
13695;BME280;6919;52.344;14.518;2022-10-22T08:38:28;100426.34;;;16.07;100.00
13695;BME280;6919;52.344;14.518;2022-10-22T08:41:08;100418.41;;;16.26;100.00
13695;BME280;6919;52.344;14.518;2022-10-22T08:44:06;100424.44;;;16.28;100.00
13695;BME280;6919;52.344;14.518;2022-10-22T08:47:01;100429.75;;;16.15;100.00
13695;BME280;6919;52.344;14.518;2022-10-22T08:49:39;100427.97;;;16.01;100.00
13695;BME280;6919;52.344;14.518;2022-10-22T08:52:14;100437.88;;;16.15;100.00
13695;BME280;6919;52.344;14.518;2022-10-22T08:54:51;100440.97;;;16.12;100.00
13695;BME280;6919;52.344;14.518;2022-10-22T08:57:41;100447.13;;;16.06;100.00
13695;BME280;6919;52.344;14.518;2022-10-22T09:00:24;100458.44;;;16.10;100.00
13695;BME280;6919;52.344;14.518;2022-10-22T09:06:10;100450.31;;;15.89;100.00
13695;BME280;6919;52.344;14.518;2022-10-22T09:08:41;100462.81;;;15.75;100.00
13695;BME280;6919;52.344;14.518;2022-10-22T09:11:23;100455.81;;;15.81;100.00
13695;BME280;6919;52.344;14.518;2022-10-22T09:13:54;100447.19;;;15.71;100.00
13695;BME280;6919;52.344;14.518;2022-10-22T09:16:35;100440.63;;;15.80;100.00
13695;BME280;6919;52.344;14.518;2022-10-22T09:19:17;100442.81;;;15.91;100.00
13695;BME280;6919;52.344;14.518;2022-10-22T09:21:59;100437.50;;;16.18;100.00
13695;BME280;6919;52.344;14.518;2022-10-22T09:24:36;100437.09;;;16.00;100.00
13695;BME280;6919;52.344;14.518;2022-10-22T09:27:11;100440.38;;;15.96;100.00
13695;BME280;6919;52.344;14.518;2022-10-22T09:29:44;100447.47;;;15.97;100.00
13695;BME280;6919;52.344;14.518;2022-10-22T09:32:13;100446.63;;;15.96;100.00
13695;BME280;6919;52.344;14.518;2022-10-22T09:34:43;100453.63;;;15.91;100.00
13695;BME280;6919;52.344;14.518;2022-10-22T09:37:17;100451.91;;;16.04;100.00
13695;BME280;6919;52.344;14.518;2022-10-22T09:39:50;100451.06;;;16.04;100.00
13695;BME280;6919;52.344;14.518;2022-10-22T09:42:20;100454.88;;;16.09;100.00
13695;BME280;6919;52.344;14.518;2022-10-22T09:44:53;100459.19;;;16.25;100.00
13695;BME280;6919;52.344;14.518;2022-10-22T09:47:33;100452.69;;;16.19;100.00
13695;BME280;6919;52.344;14.518;2022-10-22T09:50:28;100461.94;;;16.31;100.00
13695;BME280;6919;52.344;14.518;2022-10-22T09:53:03;100456.03;;;16.42;100.00
13695;BME280;6919;52.344;14.518;2022-10-22T09:55:31;100456.91;;;16.28;100.00
13695;BME280;6919;52.344;14.518;2022-10-22T09:57:59;100458.63;;;16.50;100.00
13695;BME280;6919;52.344;14.518;2022-10-22T10:00:30;100459.84;;;16.75;100.00
13695;BME280;6919;52.344;14.518;2022-10-22T10:02:59;100461.22;;;16.65;100.00
13695;BME280;6919;52.344;14.518;2022-10-22T10:05:30;100464.50;;;16.60;100.00
13695;BME280;6919;52.344;14.518;2022-10-22T10:08:02;100464.56;;;16.94;100.00
13695;BME280;6919;52.344;14.518;2022-10-22T10:10:45;100461.31;;;17.12;100.00
13695;BME280;6919;52.344;14.518;2022-10-22T10:13:45;100458.59;;;17.05;100.00
13695;BME280;6919;52.344;14.518;2022-10-22T10:16:42;100466.44;;;16.94;100.00
13695;BME280;6919;52.344;14.518;2022-10-22T10:19:40;100460.69;;;17.03;100.00
13695;BME280;6919;52.344;14.518;2022-10-22T10:22:32;100463.41;;;17.10;100.00
13695;BME280;6919;52.344;14.518;2022-10-22T10:25:31;100463.63;;;17.08;100.00
13695;BME280;6919;52.344;14.518;2022-10-22T10:31:16;100467.50;;;16.99;100.00
13695;BME280;6919;52.344;14.518;2022-10-22T10:34:03;100464.56;;;16.94;100.00
13695;BME280;6919;52.344;14.518;2022-10-22T10:36:44;100466.06;;;16.69;100.00
13695;BME280;6919;52.344;14.518;2022-10-22T10:39:24;100460.81;;;16.95;100.00
13695;BME280;6919;52.344;14.518;2022-10-22T10:42:00;100454.50;;;17.16;100.00
13695;BME280;6919;52.344;14.518;2022-10-22T10:44:52;100444.88;;;16.79;100.00
13695;BME280;6919;52.344;14.518;2022-10-22T10:47:50;100452.16;;;17.47;100.00
13695;BME280;6919;52.344;14.518;2022-10-22T10:50:34;100461.47;;;17.31;100.00
13695;BME280;6919;52.344;14.518;2022-10-22T10:53:20;100457.53;;;17.40;100.00
13695;BME280;6919;52.344;14.518;2022-10-22T10:56:01;100465.88;;;17.39;100.00
13695;BME280;6919;52.344;14.518;2022-10-22T10:58:42;100459.38;;;17.33;100.00
13695;BME280;6919;52.344;14.518;2022-10-22T11:01:24;100457.03;;;17.24;100.00
13695;BME280;6919;52.344;14.518;2022-10-22T11:04:23;100459.63;;;17.04;100.00
13695;BME280;6919;52.344;14.518;2022-10-22T11:07:04;100464.13;;;17.59;100.00
13695;BME280;6919;52.344;14.518;2022-10-22T11:09:48;100455.88;;;17.39;100.00
13695;BME280;6919;52.344;14.518;2022-10-22T11:12:23;100462.72;;;17.35;100.00
13695;BME280;6919;52.344;14.518;2022-10-22T11:15:02;100468.63;;;17.11;100.00
13695;BME280;6919;52.344;14.518;2022-10-22T11:17:40;100467.16;;;17.09;100.00
13695;BME280;6919;52.344;14.518;2022-10-22T11:20:18;100465.91;;;17.05;100.00
13695;BME280;6919;52.344;14.518;2022-10-22T11:22:56;100468.47;;;17.19;100.00
13695;BME280;6919;52.344;14.518;2022-10-22T11:25:47;100470.81;;;17.63;100.00
13695;BME280;6919;52.344;14.518;2022-10-22T11:28:23;100474.69;;;17.48;100.00
13695;BME280;6919;52.344;14.518;2022-10-22T11:31:00;100466.34;;;18.03;100.00
13695;BME280;6919;52.344;14.518;2022-10-22T11:33:39;100471.31;;;17.99;100.00
13695;BME280;6919;52.344;14.518;2022-10-22T11:36:11;100470.56;;;18.25;100.00
13695;BME280;6919;52.344;14.518;2022-10-22T11:38:43;100469.94;;;18.29;100.00
13695;BME280;6919;52.344;14.518;2022-10-22T11:41:15;100470.06;;;18.02;100.00
13695;BME280;6919;52.344;14.518;2022-10-22T11:43:57;100470.13;;;18.08;100.00
13695;BME280;6919;52.344;14.518;2022-10-22T11:46:37;100466.16;;;18.04;100.00
13695;BME280;6919;52.344;14.518;2022-10-22T11:49:21;100478.50;;;18.33;100.00
13695;BME280;6919;52.344;14.518;2022-10-22T11:51:51;100477.25;;;18.29;100.00
13695;BME280;6919;52.344;14.518;2022-10-22T11:54:44;100478.06;;;18.23;100.00
13695;BME280;6919;52.344;14.518;2022-10-22T11:57:19;100475.41;;;18.36;100.00
13695;BME280;6919;52.344;14.518;2022-10-22T11:59:52;100476.03;;;18.51;100.00
13695;BME280;6919;52.344;14.518;2022-10-22T12:02:42;100469.75;;;18.89;100.00
13695;BME280;6919;52.344;14.518;2022-10-22T12:05:42;100474.13;;;19.10;100.00
13695;BME280;6919;52.344;14.518;2022-10-22T12:08:24;100465.53;;;19.13;100.00
13695;BME280;6919;52.344;14.518;2022-10-22T12:11:19;100468.69;;;18.97;100.00
13695;BME280;6919;52.344;14.518;2022-10-22T12:14:16;100475.81;;;18.98;100.00
13695;BME280;6919;52.344;14.518;2022-10-22T12:16:51;100476.00;;;19.03;100.00
13695;BME280;6919;52.344;14.518;2022-10-22T12:19:30;100473.84;;;19.44;100.00
13695;BME280;6919;52.344;14.518;2022-10-22T12:22:12;100471.06;;;19.57;100.00
13695;BME280;6919;52.344;14.518;2022-10-22T12:24:46;100472.88;;;19.76;100.00
13695;BME280;6919;52.344;14.518;2022-10-22T12:27:20;100478.03;;;19.46;100.00
13695;BME280;6919;52.344;14.518;2022-10-22T12:29:54;100481.66;;;19.78;100.00
13695;BME280;6919;52.344;14.518;2022-10-22T12:32:31;100478.97;;;19.71;100.00
13695;BME280;6919;52.344;14.518;2022-10-22T12:35:05;100486.00;;;19.35;100.00
13695;BME280;6919;52.344;14.518;2022-10-22T12:37:36;100476.78;;;19.36;100.00
13695;BME280;6919;52.344;14.518;2022-10-22T12:40:20;100479.66;;;19.54;100.00
13695;BME280;6919;52.344;14.518;2022-10-22T12:42:54;100481.09;;;19.63;100.00
13695;BME280;6919;52.344;14.518;2022-10-22T12:45:26;100470.28;;;19.94;100.00
13695;BME280;6919;52.344;14.518;2022-10-22T12:47:57;100478.13;;;19.71;100.00
13695;BME280;6919;52.344;14.518;2022-10-22T12:50:34;100480.41;;;19.74;100.00
13695;BME280;6919;52.344;14.518;2022-10-22T12:53:04;100472.16;;;19.93;100.00
13695;BME280;6919;52.344;14.518;2022-10-22T12:55:33;100475.81;;;19.68;100.00
13695;BME280;6919;52.344;14.518;2022-10-22T12:58:07;100465.41;;;20.02;100.00
13695;BME280;6919;52.344;14.518;2022-10-22T13:00:41;100476.53;;;20.01;100.00
13695;BME280;6919;52.344;14.518;2022-10-22T13:03:25;100477.00;;;19.85;100.00
13695;BME280;6919;52.344;14.518;2022-10-22T13:05:54;100477.75;;;20.05;100.00
13695;BME280;6919;52.344;14.518;2022-10-22T13:08:26;100480.38;;;20.25;100.00
13695;BME280;6919;52.344;14.518;2022-10-22T13:10:55;100483.59;;;20.15;100.00
13695;BME280;6919;52.344;14.518;2022-10-22T13:13:38;100488.75;;;19.79;100.00
13695;BME280;6919;52.344;14.518;2022-10-22T13:16:17;100491.94;;;19.76;100.00
13695;BME280;6919;52.344;14.518;2022-10-22T13:18:47;100496.34;;;19.70;100.00